This is the latest recevied weather packets stored in our database for station/object ON5MM-5. If no packets are shown the sender has not sent any weather packets the latest 10 day(s).
| Time | Temp. | Humidity | Pressure | Rain* | Wind** | Luminosity | Snow |
|---|---|---|---|---|---|---|---|
| 1777667102 | 14.44° C | 36% | 1023.6 hPa | 0 mm | 0 m/s | - | - |
| 1777665302 | 15° C | 35% | 1023.5 hPa | 0 mm | 0.89 m/s, ° | - | - |
| 1777663503 | 16.67° C | 33% | 1023.4 hPa | 0 mm | 0 m/s | - | - |
| 1777662302 | 18.33° C | 29% | 1023.2 hPa | 0 mm | 0 m/s | - | - |
| 1777661702 | 18.89° C | 28% | 1023.2 hPa | 0 mm | 0.89 m/s, ° | - | - |
| 1777661102 | 19.44° C | 27% | 1023.1 hPa | 0 mm | 1.34 m/s, ° | - | - |
| 1777660503 | 20° C | 26% | 1023 hPa | 0 mm | 1.79 m/s, ° | - | - |
| 1777659302 | 20.56° C | 25% | 1023 hPa | 0 mm | 2.68 m/s, ° | - | - |
| 1777659003 | 20.56° C | 25% | 1023 hPa | 0 mm | 3.13 m/s, ° | - | - |
| 1777653302 | 23.33° C | 22% | 1023 hPa | 0 mm | 3.13 m/s, ° | - | - |
| 1777652703 | 22.78° C | 22% | 1023 hPa | 0 mm | 4.02 m/s, ° | - | - |
| 1777650902 | 22.78° C | 22% | 1023.2 hPa | 0 mm | 4.02 m/s, ° | - | - |
| 1777650002 | 23.33° C | 23% | 1023.3 hPa | 0 mm | 3.13 m/s, ° | - | - |
| 1777649702 | 23.33° C | 21% | 1023.2 hPa | 0 mm | 3.13 m/s, ° | - | - |
| 1777649402 | 23.33° C | 22% | 1023.4 hPa | 0 mm | 3.13 m/s, ° | - | - |
| 1777649102 | 22.78° C | 22% | 1023.4 hPa | 0 mm | 4.02 m/s, ° | - | - |
| 1777648803 | 23.33° C | 22% | 1023.5 hPa | 0 mm | 4.92 m/s, ° | - | - |
| 1777648502 | 22.78° C | 21% | 1023.5 hPa | 0 mm | 4.47 m/s, ° | - | - |
| 1777648202 | 23.33° C | 22% | 1023.5 hPa | 0 mm | 3.58 m/s, ° | - | - |
| 1777647903 | 22.78° C | 20% | 1023.6 hPa | 0 mm | 4.02 m/s, ° | - | - |
| 1777646402 | 23.33° C | 22% | 1023.8 hPa | 0 mm | 3.58 m/s, ° | - | - |
| 1777646102 | 23.33° C | 21% | 1023.8 hPa | 0 mm | 3.58 m/s, ° | - | - |
| 1777645802 | 23.33° C | 22% | 1023.8 hPa | 0 mm | 4.02 m/s, ° | - | - |
| 1777645502 | 23.33° C | 21% | 1023.8 hPa | 0 mm | 4.02 m/s, ° | - | - |
| 1777645202 | 22.78° C | 20% | 1023.8 hPa | 0 mm | 4.02 m/s, ° | - | - |
* Rain latest hour (hover to see other rain measurements)
** Current wind speed in m/s (hover to see current wind gust speed)